createdAt,value
2019-04-11T05:32:05.143Z,37.19
2019-04-11T05:34:35.206Z,37.60
2019-04-11T05:37:04.395Z,37.61
2019-04-11T05:39:33.902Z,37.83
2019-04-11T05:42:03.172Z,38.70
2019-04-11T05:44:32.600Z,38.94
2019-04-11T05:47:03.479Z,39.08
2019-04-11T05:49:52.645Z,38.66
2019-04-11T05:52:21.568Z,39.11
2019-04-11T05:54:54.346Z,37.80
2019-04-11T05:57:26.933Z,38.69
2019-04-11T05:59:55.181Z,39.08
2019-04-11T06:02:33.255Z,39.12
2019-04-11T06:05:10.985Z,39.32
2019-04-11T06:07:54.772Z,39.89
2019-04-11T06:10:28.557Z,39.41
2019-04-11T06:13:18.541Z,39.37
2019-04-11T06:15:51.287Z,38.51
2019-04-11T06:18:45.503Z,38.17
2019-04-11T06:21:24.340Z,37.95
2019-04-11T06:24:12.196Z,37.46
2019-04-11T06:26:49.218Z,37.32
2019-04-11T06:29:29.947Z,37.06
2019-04-11T06:32:17.235Z,36.97
2019-04-11T06:34:52.328Z,36.76
2019-04-11T06:37:40.241Z,36.63
2019-04-11T06:40:24.832Z,36.48
2019-04-11T06:43:03.698Z,36.38
2019-04-11T06:45:56.541Z,36.61
2019-04-11T06:48:35.861Z,36.84
2019-04-11T06:51:15.620Z,36.75
2019-04-11T06:54:04.353Z,36.67
2019-04-11T06:56:39.713Z,36.53
2019-04-11T06:59:34.477Z,36.42
2019-04-11T07:02:16.424Z,36.35
2019-04-11T07:04:51.660Z,36.26
2019-04-11T07:07:21.829Z,36.26
2019-04-11T07:09:57.672Z,36.30
2019-04-11T07:12:56.933Z,36.23
2019-04-11T07:15:29.401Z,36.24
2019-04-11T07:18:15.836Z,36.31
2019-04-11T07:20:54.252Z,36.28
2019-04-11T07:23:43.995Z,36.24
2019-04-11T07:26:18.906Z,36.58
2019-04-11T07:29:22.270Z,36.59
2019-04-11T07:32:16.015Z,36.41
2019-04-11T07:35:17.365Z,36.21
2019-04-11T07:37:49.172Z,36.25
2019-04-11T07:40:39.337Z,36.26
2019-04-11T07:43:19.637Z,36.26
2019-04-11T07:46:09.488Z,36.24
2019-04-11T07:48:42.651Z,36.21
2019-04-11T07:51:40.738Z,36.11
2019-04-11T07:54:18.063Z,36.17
2019-04-11T07:56:55.069Z,36.27
2019-04-11T07:59:46.704Z,36.69
2019-04-11T08:02:33.407Z,36.69
2019-04-11T08:05:19.714Z,36.46
2019-04-11T08:08:08.250Z,36.46
2019-04-11T08:10:43.684Z,36.99
2019-04-11T08:13:17.083Z,36.29
2019-04-11T08:16:23.435Z,35.87
2019-04-11T08:19:09.822Z,35.98
2019-04-11T08:21:56.791Z,36.05
2019-04-11T08:24:44.813Z,36.17
2019-04-11T08:27:31.796Z,36.35
2019-04-11T08:30:02.529Z,36.42
2019-04-11T08:33:02.533Z,36.51
2019-04-11T08:35:53.436Z,36.57
2019-04-11T08:38:32.739Z,35.34
2019-04-11T08:41:19.930Z,35.40
2019-04-11T08:43:48.823Z,35.31
2019-04-11T08:46:24.258Z,35.30
2019-04-11T08:48:57.592Z,35.05
2019-04-11T08:51:27.459Z,35.16
2019-04-11T08:54:15.405Z,35.11
2019-04-11T08:56:45.352Z,35.00
2019-04-11T08:59:39.817Z,35.12
2019-04-11T09:02:08.860Z,35.31
2019-04-11T09:05:08.456Z,35.36
2019-04-11T09:07:33.780Z,35.07
2019-04-11T09:10:20.392Z,35.08
2019-04-11T09:12:56.661Z,35.02
2019-04-11T09:15:53.564Z,35.04
2019-04-11T09:18:22.772Z,35.01
2019-04-11T09:21:16.843Z,35.12
2019-04-11T09:23:46.059Z,35.16
2019-04-11T09:26:32.491Z,35.18
2019-04-11T09:29:03.988Z,35.25
2019-04-11T09:31:51.671Z,35.21
2019-04-11T09:34:45.939Z,33.12
2019-04-11T09:37:27.883Z,31.14
2019-04-11T09:40:15.975Z,32.34
2019-04-11T09:43:12.905Z,32.90
2019-04-11T09:46:14.322Z,33.39
2019-04-11T09:49:20.533Z,33.71
2019-04-11T09:52:26.977Z,33.83
2019-04-11T09:55:08.595Z,32.68
2019-04-11T09:57:40.461Z,32.49
2019-04-11T10:00:28.858Z,31.57
2019-04-11T10:03:15.415Z,28.23
2019-04-11T10:06:15.865Z,30.43
2019-04-11T10:08:49.157Z,32.05
2019-04-11T10:11:55.304Z,32.09
2019-04-11T10:14:29.468Z,31.80
2019-04-11T10:17:16.943Z,32.33
2019-04-11T10:19:57.715Z,32.50
2019-04-11T10:22:45.969Z,32.82
2019-04-11T10:25:35.188Z,32.93
2019-04-11T10:28:23.465Z,32.60
2019-04-11T10:31:14.720Z,33.28
2019-04-11T10:34:11.715Z,33.60
2019-04-11T10:36:47.790Z,33.51
2019-04-11T10:39:53.707Z,33.70
2019-04-11T10:42:23.736Z,33.88
2019-04-11T10:45:24.862Z,34.18
2019-04-11T10:47:57.702Z,33.86
2019-04-11T10:51:00.701Z,33.83
2019-04-11T10:53:29.555Z,33.91
2019-04-11T10:56:16.272Z,34.00
2019-04-11T10:58:51.256Z,34.22
2019-04-11T11:01:35.928Z,34.46
2019-04-11T11:04:17.878Z,34.60
2019-04-11T11:06:48.809Z,34.73
2019-04-11T11:09:36.835Z,34.81
2019-04-11T11:12:27.701Z,34.86
2019-04-11T11:15:25.327Z,34.64
2019-04-11T11:19:03.441Z,35.12
2019-04-11T11:20:55.083Z,34.77
2019-04-11T11:23:49.212Z,34.75
2019-04-11T11:26:27.931Z,34.63
2019-04-11T11:29:14.648Z,34.81
2019-04-11T11:31:56.570Z,34.95
2019-04-11T11:34:44.656Z,34.94
2019-04-11T11:37:31.688Z,34.88
2019-04-11T11:40:18.874Z,34.94
2019-04-11T11:43:06.534Z,35.04
2019-04-11T11:45:54.600Z,35.13
2019-04-11T11:48:33.934Z,35.19
2019-04-11T11:51:06.358Z,35.05
2019-04-11T11:53:45.389Z,34.87
2019-04-11T11:56:14.333Z,34.92
2019-04-11T11:59:06.923Z,34.65
2019-04-11T12:01:43.246Z,34.99
2019-04-11T12:04:26.173Z,35.15
2019-04-11T12:07:02.069Z,35.21
2019-04-11T12:09:51.007Z,35.26
2019-04-11T12:12:24.801Z,34.83
2019-04-11T12:15:14.195Z,35.22
2019-04-11T12:17:59.731Z,35.05
2019-04-11T12:20:34.839Z,34.61
2019-04-11T12:23:08.753Z,34.97
2019-04-11T12:25:41.099Z,35.11
2019-04-11T12:28:26.180Z,35.13
2019-04-11T12:31:01.319Z,35.19
2019-04-11T12:33:57.590Z,35.25
2019-04-11T12:36:37.047Z,35.00
2019-04-11T12:39:28.675Z,35.07
2019-04-11T12:42:28.150Z,35.30
2019-04-11T12:45:16.146Z,35.37
2019-04-11T12:47:48.550Z,35.54
2019-04-11T12:50:35.002Z,35.42
2019-04-11T12:53:08.826Z,35.50
2019-04-11T12:56:15.163Z,35.57
2019-04-11T12:58:47.550Z,35.51
2019-04-11T13:01:35.414Z,35.42
2019-04-11T13:04:25.218Z,35.50
2019-04-11T13:07:22.273Z,35.63
2019-04-11T13:10:03.755Z,35.65
2019-04-11T13:13:03.578Z,35.75
2019-04-11T13:15:43.672Z,35.37
2019-04-11T13:18:30.265Z,35.60
2019-04-11T13:21:09.323Z,35.66
2019-04-11T13:24:09.300Z,35.41
2019-04-11T13:27:06.852Z,35.52
2019-04-11T13:30:04.138Z,35.48
2019-04-11T13:33:04.063Z,35.71
2019-04-11T13:36:01.238Z,35.72
2019-04-11T13:38:32.322Z,35.87
2019-04-11T13:41:20.609Z,35.97
2019-04-11T13:44:14.668Z,35.88
2019-04-11T13:47:02.464Z,35.96
2019-04-11T13:49:51.628Z,35.93
2019-04-11T13:52:39.564Z,35.81
2019-04-11T13:55:17.720Z,35.32
2019-04-11T13:58:05.509Z,35.71
2019-04-11T14:00:39.559Z,35.85
2019-04-11T14:03:26.438Z,35.82
2019-04-11T14:05:59.434Z,35.88
2019-04-11T14:08:34.890Z,35.91
2019-04-11T14:11:10.090Z,35.90
2019-04-11T14:13:40.817Z,35.11
2019-04-11T14:16:15.243Z,35.39
2019-04-11T14:19:07.097Z,35.62
2019-04-11T14:21:36.518Z,35.60
2019-04-11T14:24:30.032Z,35.46
2019-04-11T14:27:00.219Z,35.56
2019-04-11T14:29:43.445Z,35.43
2019-04-11T14:32:23.613Z,35.42
2019-04-11T14:35:10.690Z,35.39
2019-04-11T14:37:42.477Z,35.57
2019-04-11T14:40:46.061Z,35.12
2019-04-11T14:43:29.427Z,35.37
2019-04-11T14:46:23.246Z,35.41
2019-04-11T14:49:13.537Z,35.60
2019-04-11T14:52:01.304Z,35.63
2019-04-11T14:54:41.864Z,35.63
2019-04-11T14:57:15.457Z,35.59
2019-04-11T14:59:53.818Z,35.47
2019-04-11T15:02:30.233Z,35.33
2019-04-11T15:05:06.158Z,35.60
2019-04-11T15:07:36.663Z,35.56
2019-04-11T15:10:23.747Z,35.41
2019-04-11T15:12:53.116Z,35.41
2019-04-11T15:15:33.590Z,35.21
2019-04-11T15:18:03.838Z,35.17
2019-04-11T15:20:55.165Z,35.35
2019-04-11T15:23:37.690Z,35.46
2019-04-11T15:26:25.880Z,35.40
2019-04-11T15:28:57.695Z,35.36
2019-04-11T15:31:41.184Z,35.35
2019-04-11T15:34:24.947Z,35.29
2019-04-11T15:37:21.763Z,35.34
2019-04-11T15:40:07.871Z,35.43
2019-04-11T15:42:55.846Z,35.46
2019-04-11T15:45:47.283Z,35.57
2019-04-11T15:48:34.030Z,35.58
2019-04-11T15:51:20.565Z,35.55
2019-04-11T15:54:10.643Z,35.44
2019-04-11T15:56:47.786Z,35.42
2019-04-11T15:59:38.514Z,35.49
2019-04-11T16:02:16.512Z,35.39
2019-04-11T16:05:10.633Z,35.56
2019-04-11T16:07:58.662Z,35.44
2019-04-11T16:10:29.172Z,35.45
2019-04-11T16:13:05.676Z,35.53
2019-04-11T16:15:35.266Z,35.53
2019-04-11T16:18:41.271Z,35.57
2019-04-11T16:21:18.772Z,35.66
2019-04-11T16:24:00.790Z,35.59
2019-04-11T16:26:52.027Z,35.54
2019-04-11T16:29:38.724Z,35.55
2019-04-11T16:32:09.480Z,35.67
2019-04-11T16:34:54.483Z,35.66
2019-04-11T16:37:22.219Z,35.70
2019-04-11T16:40:08.829Z,35.71
2019-04-11T16:42:53.664Z,35.71
2019-04-11T16:45:39.301Z,35.80
2019-04-11T16:48:08.394Z,35.71
2019-04-11T16:50:37.331Z,35.77
2019-04-11T16:53:10.571Z,35.69
2019-04-11T16:55:42.096Z,35.54
2019-04-11T16:58:07.948Z,35.67
2019-04-11T17:00:37.089Z,35.76
2019-04-11T17:03:06.348Z,35.87
2019-04-11T17:05:36.495Z,36.01
2019-04-11T17:08:36.430Z,35.92
2019-04-11T17:11:15.322Z,35.84
2019-04-11T17:13:44.694Z,35.76
2019-04-11T17:16:20.711Z,35.84
2019-04-11T17:18:49.556Z,35.91
2019-04-11T17:21:18.424Z,35.99
2019-04-11T17:23:47.813Z,36.09
2019-04-11T17:26:17.917Z,36.16
2019-04-11T17:28:46.983Z,36.13
2019-04-11T17:31:16.069Z,36.12
2019-04-11T17:33:45.200Z,36.14
2019-04-11T17:36:14.349Z,36.08
2019-04-11T17:38:43.397Z,35.99
2019-04-11T17:41:12.401Z,36.02
2019-04-11T17:43:42.288Z,36.05
2019-04-11T17:46:12.466Z,36.20
2019-04-11T17:48:41.373Z,36.21
2019-04-11T17:51:10.470Z,36.15
2019-04-11T17:53:39.473Z,36.07
2019-04-11T17:56:08.506Z,36.12
2019-04-11T17:58:37.583Z,36.01
2019-04-11T18:01:07.118Z,36.07
2019-04-11T18:03:56.693Z,35.98
2019-04-11T18:06:25.650Z,35.92
2019-04-11T18:08:54.614Z,35.96
2019-04-11T18:11:26.007Z,36.00
2019-04-11T18:13:54.486Z,35.97
2019-04-11T18:16:23.440Z,36.00
2019-04-11T18:18:52.507Z,36.01
2019-04-11T18:21:21.456Z,36.00
2019-04-11T18:23:50.739Z,35.97
2019-04-11T18:26:21.474Z,35.96
2019-04-11T18:28:52.086Z,35.82
2019-04-11T18:31:24.772Z,35.94
2019-04-11T18:33:51.938Z,35.93
2019-04-11T18:36:20.960Z,36.05
2019-04-11T18:38:49.977Z,36.11
2019-04-11T18:41:18.935Z,36.17
2019-04-11T18:43:50.696Z,36.25
2019-04-11T18:46:18.842Z,36.23
2019-04-11T18:48:48.142Z,36.09
2019-04-11T18:51:16.980Z,36.04
2019-04-11T18:53:45.929Z,36.06
2019-04-11T18:56:15.911Z,36.00
2019-04-11T18:58:45.856Z,36.04
2019-04-11T19:01:14.944Z,36.06
2019-04-11T19:03:43.905Z,35.97
2019-04-11T19:06:13.702Z,35.86
2019-04-11T19:08:43.441Z,35.88
2019-04-11T19:13:47.665Z,35.99
2019-04-11T19:16:17.097Z,35.97
2019-04-11T19:18:47.688Z,35.97
2019-04-11T19:21:20.173Z,35.98
2019-04-11T19:23:47.915Z,35.95
2019-04-11T19:26:17.078Z,35.93
2019-04-11T19:28:46.245Z,35.90
2019-04-11T19:31:15.221Z,35.94
2019-04-11T19:33:44.229Z,35.89
2019-04-11T19:36:13.153Z,35.91
2019-04-11T19:39:01.387Z,35.72
2019-04-11T19:41:30.287Z,35.77
2019-04-11T19:43:59.110Z,35.87
2019-04-11T19:46:28.117Z,35.79
2019-04-11T19:48:59.400Z,35.87
2019-04-11T19:51:28.970Z,35.93
2019-04-11T19:53:58.465Z,35.96
2019-04-11T19:56:35.128Z,35.92
2019-04-11T19:59:04.094Z,36.04
2019-04-11T20:01:33.050Z,35.97
2019-04-11T20:04:02.076Z,35.98
2019-04-11T20:06:31.276Z,35.88
2019-04-11T20:09:00.321Z,35.95
2019-04-11T20:11:30.003Z,35.99
2019-04-11T20:14:00.101Z,35.88
2019-04-11T20:16:40.839Z,35.95
2019-04-11T20:19:00.890Z,35.87
2019-04-11T20:21:30.184Z,35.86
2019-04-11T20:23:59.171Z,35.77
2019-04-11T20:26:28.363Z,35.90
2019-04-11T20:28:57.416Z,35.96
2019-04-11T20:31:26.395Z,35.97
2019-04-11T20:33:55.456Z,35.88
2019-04-11T20:36:33.344Z,35.93
2019-04-11T20:38:55.404Z,36.00
2019-04-11T20:41:24.477Z,35.94
2019-04-11T20:43:56.953Z,35.90
2019-04-11T20:46:28.756Z,35.93
2019-04-11T20:48:55.268Z,35.91
2019-04-11T20:51:24.305Z,35.86
2019-04-11T20:53:53.338Z,35.90
2019-04-11T20:56:24.468Z,35.94
2019-04-11T20:58:52.983Z,35.88
2019-04-11T21:01:23.814Z,35.99
2019-04-11T21:03:52.661Z,35.94
2019-04-11T21:06:21.619Z,35.91
2019-04-11T21:08:50.570Z,35.95
2019-04-11T21:11:19.663Z,36.04
2019-04-11T21:13:48.660Z,36.13
2019-04-11T21:16:17.633Z,35.99
2019-04-11T21:18:46.680Z,36.04
2019-04-11T21:21:15.747Z,36.00
2019-04-11T21:23:44.715Z,35.94
2019-04-11T21:26:13.746Z,35.79
2019-04-11T21:28:42.651Z,35.88
2019-04-11T21:31:31.703Z,35.99
2019-04-11T21:34:02.270Z,35.95
2019-04-11T21:36:32.241Z,35.81
2019-04-11T21:39:03.720Z,35.75
2019-04-11T21:41:35.990Z,35.89
2019-04-11T21:44:05.861Z,35.93
2019-04-11T21:46:37.314Z,35.94
2019-04-11T21:49:06.310Z,35.97
2019-04-11T21:51:35.486Z,35.99
2019-04-11T21:54:04.602Z,35.90
2019-04-11T21:56:33.948Z,35.93
2019-04-11T21:59:02.896Z,36.06
2019-04-11T22:01:31.795Z,36.02
2019-04-11T22:04:00.657Z,35.99
2019-04-11T22:06:30.486Z,36.20
2019-04-11T22:08:59.996Z,36.17
2019-04-11T22:11:28.986Z,36.14
2019-04-11T22:13:58.025Z,36.18
2019-04-11T22:16:27.388Z,36.10
2019-04-11T22:18:56.366Z,36.15
2019-04-11T22:21:25.377Z,36.18
2019-04-11T22:23:54.507Z,36.03
2019-04-11T22:26:23.364Z,36.25
2019-04-11T22:28:54.901Z,36.27
2019-04-11T22:31:25.017Z,36.43
2019-04-11T22:34:02.351Z,36.28
2019-04-11T22:36:31.333Z,36.19
2019-04-11T22:39:01.045Z,36.23
2019-04-11T22:41:30.026Z,36.43
2019-04-11T22:43:59.059Z,36.54
2019-04-11T22:46:28.129Z,36.56
2019-04-11T22:48:56.997Z,36.47
2019-04-11T22:51:25.789Z,36.32
2019-04-11T22:54:00.364Z,36.23
2019-04-11T22:56:25.601Z,36.30
2019-04-11T22:58:54.648Z,36.48
2019-04-11T23:01:23.730Z,36.53
2019-04-11T23:04:02.418Z,36.60
2019-04-11T23:06:31.298Z,36.75
2019-04-11T23:09:00.271Z,36.68
2019-04-11T23:11:29.312Z,36.68
2019-04-11T23:13:58.148Z,36.95
2019-04-11T23:16:27.319Z,36.65
2019-04-11T23:18:56.169Z,36.70
2019-04-11T23:21:24.965Z,36.60
2019-04-11T23:23:54.007Z,36.80
2019-04-11T23:26:22.987Z,36.57
2019-04-11T23:28:52.017Z,37.02
2019-04-11T23:31:21.175Z,36.98
2019-04-11T23:33:51.984Z,36.89
2019-04-11T23:36:21.320Z,36.93
2019-04-11T23:38:52.716Z,36.92
2019-04-11T23:41:21.440Z,37.07
2019-04-11T23:43:50.540Z,37.10
2019-04-11T23:46:21.454Z,37.07
2019-04-11T23:48:54.768Z,37.41
2019-04-11T23:51:25.481Z,37.12
2019-04-11T23:53:51.482Z,37.04
2019-04-11T23:56:20.477Z,37.27
2019-04-11T23:58:49.526Z,37.25
